createdAt,value
2023-05-07T00:01:32.853Z,97204.72
2023-05-07T00:03:59.581Z,97173.97
2023-05-07T00:06:27.058Z,97194.72
2023-05-07T00:08:53.630Z,97185.44
2023-05-07T00:11:20.877Z,97169.47
2023-05-07T00:13:49.121Z,97160.91
2023-05-07T00:16:15.917Z,97163.03
2023-05-07T00:18:42.506Z,97129.75
2023-05-07T00:21:09.365Z,97071.91
2023-05-07T00:23:35.881Z,97135.97
2023-05-07T00:26:02.431Z,97136.34
2023-05-07T00:28:28.980Z,97109.06
2023-05-07T00:30:55.873Z,97165.91
2023-05-07T00:33:23.192Z,97081.34
2023-05-07T00:35:49.807Z,97078.06
2023-05-07T00:38:16.397Z,97072.72
2023-05-07T00:40:42.956Z,97066.22
2023-05-07T00:43:10.073Z,97039.72
2023-05-07T00:45:36.885Z,97040.00
2023-05-07T00:48:04.049Z,97015.97
2023-05-07T00:50:31.109Z,96991.25
2023-05-07T00:52:58.416Z,97006.34
2023-05-07T00:55:25.484Z,96984.69
2023-05-07T00:57:52.748Z,96985.19
2023-05-07T01:00:20.420Z,96982.94
2023-05-07T01:02:47.807Z,96981.84
2023-05-07T01:05:18.457Z,96966.44
2023-05-07T01:07:46.610Z,96958.75
2023-05-07T01:10:13.909Z,96963.16
2023-05-07T01:12:41.663Z,96950.97
2023-05-07T01:15:10.379Z,96964.09
2023-05-07T01:17:39.213Z,96915.84
2023-05-07T01:20:08.524Z,96905.41
2023-05-07T01:22:37.874Z,96931.81
2023-05-07T01:25:06.192Z,96948.47
2023-05-07T01:27:34.661Z,96935.47
2023-05-07T01:30:01.391Z,96925.97
2023-05-07T01:32:44.383Z,96923.06
2023-05-07T01:35:14.794Z,96924.28
2023-05-07T01:37:41.895Z,96891.66
2023-05-07T01:40:09.773Z,96878.69
2023-05-07T01:42:37.211Z,96898.38
2023-05-07T01:45:04.012Z,96890.28
2023-05-07T01:47:32.559Z,96874.59
2023-05-07T01:49:59.632Z,96840.34
2023-05-07T01:52:26.622Z,96825.59
2023-05-07T01:54:53.268Z,96828.53
2023-05-07T01:57:20.021Z,96832.13
2023-05-07T01:59:46.732Z,96790.88
2023-05-07T02:02:13.453Z,96791.81
2023-05-07T02:04:40.296Z,96755.00
2023-05-07T02:07:07.036Z,96722.41
2023-05-07T02:09:33.697Z,96691.50
2023-05-07T02:12:00.928Z,96658.94
2023-05-07T02:14:27.733Z,96657.03
2023-05-07T02:16:54.390Z,96631.38
2023-05-07T02:19:22.191Z,96628.72
2023-05-07T02:21:49.043Z,96612.22
2023-05-07T02:24:15.756Z,96598.41
2023-05-07T02:26:43.363Z,96607.38
2023-05-07T02:29:10.029Z,96586.03
2023-05-07T02:31:36.662Z,96570.00
2023-05-07T02:34:03.358Z,96570.00
2023-05-07T02:36:29.948Z,96565.72
2023-05-07T02:38:56.714Z,96556.81
2023-05-07T02:41:23.385Z,96563.47
2023-05-07T02:43:49.979Z,96543.09
2023-05-07T02:46:17.096Z,96546.56
2023-05-07T02:48:44.228Z,96524.00
2023-05-07T02:51:10.933Z,96552.50
2023-05-07T02:53:38.008Z,96554.09
2023-05-07T02:56:04.979Z,96558.41
2023-05-07T02:58:31.557Z,96561.03
2023-05-07T03:00:58.440Z,96562.47
2023-05-07T03:03:25.167Z,96541.84
2023-05-07T03:05:51.821Z,96565.50
2023-05-07T03:08:18.507Z,96569.78
2023-05-07T03:10:45.225Z,96564.06
2023-05-07T03:13:11.832Z,96543.84
2023-05-07T03:15:38.474Z,96587.63
2023-05-07T03:18:05.226Z,96593.50
2023-05-07T03:20:32.066Z,96556.81
2023-05-07T03:22:58.676Z,96562.72
2023-05-07T03:25:25.545Z,96596.72
2023-05-07T03:27:52.106Z,96605.66
2023-05-07T03:32:46.219Z,96575.53
2023-05-07T03:35:12.969Z,96594.19
2023-05-07T03:37:40.093Z,96608.66
2023-05-07T03:40:07.634Z,96608.28
2023-05-07T03:42:34.446Z,96595.75
2023-05-07T03:45:00.999Z,96628.03
2023-05-07T03:47:27.737Z,96642.03
2023-05-07T03:49:55.889Z,96651.16
2023-05-07T03:52:26.804Z,96655.44
2023-05-07T03:54:54.688Z,96661.34
2023-05-07T03:57:21.658Z,96673.56
2023-05-07T03:59:48.208Z,96687.97
2023-05-07T04:02:15.134Z,96706.19
2023-05-07T04:04:41.717Z,96713.31
2023-05-07T04:07:08.463Z,96720.06
2023-05-07T04:09:35.018Z,96731.41
2023-05-07T04:12:06.232Z,96733.03
2023-05-07T04:14:33.336Z,96757.56
2023-05-07T04:17:00.651Z,96784.84
2023-05-07T04:19:27.309Z,96790.25
2023-05-07T04:21:53.849Z,96782.44
2023-05-07T04:24:20.528Z,96801.31
2023-05-07T04:26:47.135Z,96821.44
2023-05-07T04:29:13.775Z,96839.69
2023-05-07T04:31:40.462Z,96847.25
2023-05-07T04:34:07.207Z,96830.88
2023-05-07T04:36:34.869Z,96875.63
2023-05-07T04:39:01.520Z,96880.56
2023-05-07T04:41:28.824Z,96885.84
2023-05-07T04:43:55.614Z,96893.38
2023-05-07T04:46:22.230Z,96906.59
2023-05-07T04:48:48.798Z,96925.81
2023-05-07T04:51:16.839Z,96944.19
2023-05-07T04:53:44.230Z,96943.94
2023-05-07T04:56:10.928Z,96963.25
2023-05-07T04:58:37.560Z,96965.31
2023-05-07T05:01:04.332Z,96992.50
2023-05-07T05:03:31.360Z,96999.94
2023-05-07T05:06:00.407Z,97013.97
2023-05-07T05:08:27.025Z,97051.50
2023-05-07T05:10:53.596Z,97046.59
2023-05-07T05:13:20.191Z,97062.78
2023-05-07T05:15:47.067Z,97071.53
2023-05-07T05:18:14.129Z,97068.63
2023-05-07T05:20:41.746Z,97077.81
2023-05-07T05:23:09.255Z,97089.75
2023-05-07T05:25:35.816Z,97102.44
2023-05-07T05:28:02.476Z,97092.59
2023-05-07T05:30:29.043Z,97113.00
2023-05-07T05:32:55.645Z,97108.91
2023-05-07T05:35:22.201Z,97120.81
2023-05-07T05:37:49.243Z,97080.56
2023-05-07T05:40:15.907Z,97141.13
2023-05-07T05:42:45.113Z,97132.00
2023-05-07T05:45:11.747Z,97143.41
2023-05-07T05:47:39.512Z,97140.59
2023-05-07T05:50:07.794Z,97107.78
2023-05-07T05:52:34.422Z,97146.31
2023-05-07T05:55:00.992Z,97160.44
2023-05-07T05:57:29.065Z,97118.97
2023-05-07T05:59:55.999Z,97130.22
2023-05-07T06:02:22.798Z,97153.25
2023-05-07T06:04:49.730Z,97169.00
2023-05-07T06:07:16.399Z,97171.91
2023-05-07T06:09:42.930Z,97162.81
2023-05-07T06:12:09.529Z,97162.72
2023-05-07T06:14:36.056Z,97148.69
2023-05-07T06:17:02.696Z,97132.84
2023-05-07T06:19:29.432Z,97137.94
2023-05-07T06:21:57.564Z,97137.78
2023-05-07T06:24:27.893Z,97136.75
2023-05-07T06:26:54.455Z,97113.69
2023-05-07T06:29:21.259Z,97093.03
2023-05-07T06:31:47.826Z,97101.41
2023-05-07T06:34:17.164Z,97104.22
2023-05-07T06:36:43.854Z,97077.81
2023-05-07T06:39:10.444Z,97085.56
2023-05-07T06:41:37.199Z,97025.66
2023-05-07T06:44:04.189Z,97081.47
2023-05-07T06:46:30.972Z,97062.63
2023-05-07T06:48:57.907Z,97096.88
2023-05-07T06:51:31.395Z,97079.19
2023-05-07T06:53:57.949Z,97094.31
2023-05-07T06:56:24.864Z,97100.72
2023-05-07T06:58:51.479Z,97107.13
2023-05-07T07:01:18.139Z,97094.50
2023-05-07T07:03:44.664Z,97114.78
2023-05-07T07:06:11.189Z,97138.41
2023-05-07T07:08:39.791Z,97145.69
2023-05-07T07:11:07.386Z,97153.44
2023-05-07T07:13:34.072Z,97153.91
2023-05-07T07:16:01.360Z,97148.41
2023-05-07T07:18:28.670Z,97163.28
2023-05-07T07:20:55.388Z,97165.00
2023-05-07T07:23:22.174Z,97178.94
2023-05-07T07:25:48.859Z,97184.22
2023-05-07T07:28:15.359Z,97178.81
2023-05-07T07:30:45.438Z,97216.94
2023-05-07T07:33:12.221Z,97227.38
2023-05-07T07:35:38.913Z,97192.78
2023-05-07T07:38:05.732Z,97236.06
2023-05-07T07:40:32.610Z,97253.31
2023-05-07T07:42:59.782Z,97258.66
2023-05-07T07:45:26.321Z,97281.03
2023-05-07T07:47:53.238Z,97292.53
2023-05-07T07:50:32.190Z,97297.72
2023-05-07T07:53:06.399Z,97284.31
2023-05-07T07:55:33.510Z,97304.75
2023-05-07T07:58:00.118Z,97316.59
2023-05-07T08:00:26.760Z,97325.25
2023-05-07T08:02:53.479Z,97332.91
2023-05-07T08:05:20.387Z,97309.38
2023-05-07T08:07:49.150Z,97335.50
2023-05-07T08:10:22.131Z,97324.72
2023-05-07T08:12:51.689Z,97331.53
2023-05-07T08:15:19.180Z,97335.81
2023-05-07T08:17:45.926Z,97344.78
2023-05-07T08:20:12.814Z,97357.31
2023-05-07T08:22:39.649Z,97389.25
2023-05-07T08:25:06.691Z,97341.09
2023-05-07T08:27:33.195Z,97337.72
2023-05-07T08:29:59.865Z,97337.72
2023-05-07T08:32:26.549Z,97346.28
2023-05-07T08:34:53.320Z,97345.09
2023-05-07T08:37:19.939Z,97352.53
2023-05-07T08:39:55.084Z,97275.06
2023-05-07T08:42:25.325Z,97366.09
2023-05-07T08:44:54.299Z,97345.38
2023-05-07T08:47:23.739Z,97368.38
2023-05-07T08:49:51.656Z,97393.84
2023-05-07T08:52:20.838Z,97392.16
2023-05-07T08:54:53.869Z,97392.34
2023-05-07T08:57:21.822Z,97411.00
2023-05-07T08:59:48.410Z,97416.94
2023-05-07T09:02:15.759Z,97425.88
2023-05-07T09:04:42.646Z,97420.06
2023-05-07T09:07:09.338Z,97428.53
2023-05-07T09:09:36.230Z,97415.69
2023-05-07T09:12:04.086Z,97436.91
2023-05-07T09:14:31.542Z,97392.50
2023-05-07T09:16:58.202Z,97450.94
2023-05-07T09:19:25.779Z,97452.16
2023-05-07T09:22:07.973Z,97451.09
2023-05-07T09:24:37.251Z,97474.59
2023-05-07T09:27:04.364Z,97471.09
2023-05-07T09:29:36.202Z,97480.84
2023-05-07T09:32:04.712Z,97487.81
2023-05-07T09:34:32.255Z,97480.13
2023-05-07T09:37:04.996Z,97503.63
2023-05-07T09:39:48.864Z,97527.38
2023-05-07T09:42:18.877Z,97501.28
2023-05-07T09:44:46.209Z,97524.91
2023-05-07T09:47:14.732Z,97548.44
2023-05-07T09:49:43.439Z,97553.00
2023-05-07T09:52:11.658Z,97581.81
2023-05-07T09:54:39.298Z,97624.31
2023-05-07T09:57:08.004Z,97558.03
2023-05-07T09:59:37.764Z,97600.63
2023-05-07T10:02:05.324Z,97579.78
2023-05-07T10:04:33.245Z,97612.41
2023-05-07T10:07:01.253Z,97621.31
2023-05-07T10:09:28.006Z,97632.56
2023-05-07T10:11:55.642Z,97627.09
2023-05-07T10:14:22.952Z,97679.50
2023-05-07T10:16:49.967Z,97687.31
2023-05-07T10:19:17.659Z,97688.69
2023-05-07T10:22:01.795Z,97722.94
2023-05-07T10:24:33.689Z,97678.47
2023-05-07T10:27:02.564Z,97682.47
2023-05-07T10:29:35.998Z,97700.22
2023-05-07T10:32:11.557Z,97700.13
2023-05-07T10:34:41.753Z,97745.22
2023-05-07T10:37:10.301Z,97683.41
2023-05-07T10:39:37.304Z,97766.91
2023-05-07T10:42:15.469Z,97738.44
2023-05-07T10:44:42.096Z,97820.88
2023-05-07T10:47:19.680Z,97814.75
2023-05-07T10:49:46.401Z,97824.41
2023-05-07T10:52:21.381Z,97847.91
2023-05-07T10:54:48.434Z,97839.72
2023-05-07T10:57:41.297Z,97875.78
2023-05-07T11:03:00.492Z,97915.69
2023-05-07T11:05:32.383Z,97905.13
2023-05-07T11:08:04.258Z,97925.63
2023-05-07T11:10:56.382Z,97956.31
2023-05-07T11:13:43.262Z,97973.69
2023-05-07T11:16:26.508Z,97975.97
2023-05-07T11:18:55.377Z,97983.03
2023-05-07T11:21:49.400Z,98016.81
2023-05-07T11:24:17.770Z,98007.75
2023-05-07T11:26:46.123Z,98040.41
2023-05-07T11:29:14.444Z,98056.50
2023-05-07T11:31:41.270Z,98090.03
2023-05-07T11:34:08.755Z,98100.56
2023-05-07T11:36:35.591Z,98128.56
2023-05-07T11:39:02.324Z,98123.41
2023-05-07T11:41:38.596Z,98121.63
2023-05-07T11:44:05.393Z,98142.88
2023-05-07T11:46:32.310Z,98173.97
2023-05-07T11:48:59.258Z,98167.78
2023-05-07T11:51:27.417Z,98172.09
2023-05-07T11:53:54.780Z,98201.28
2023-05-07T11:56:21.822Z,98208.28
2023-05-07T11:58:49.763Z,98215.34
2023-05-07T12:01:23.476Z,98124.00
2023-05-07T12:03:50.085Z,98195.09
2023-05-07T12:06:18.302Z,98250.41
2023-05-07T12:08:47.879Z,98297.16
2023-05-07T12:11:18.516Z,98270.06
2023-05-07T12:13:48.770Z,98295.88
2023-05-07T12:16:15.722Z,98326.09
2023-05-07T12:18:42.851Z,98312.19
2023-05-07T12:21:10.055Z,98326.25
2023-05-07T12:23:37.872Z,98350.72
2023-05-07T12:26:07.479Z,98355.88
2023-05-07T12:28:40.883Z,98354.72
2023-05-07T12:31:08.612Z,98333.06
2023-05-07T12:33:36.444Z,98367.38
2023-05-07T12:36:09.627Z,98367.91
2023-05-07T12:38:38.053Z,98418.56
2023-05-07T12:41:06.003Z,98370.09
2023-05-07T12:43:33.125Z,98401.88
2023-05-07T12:46:05.885Z,98424.19
2023-05-07T12:48:33.246Z,98438.94
2023-05-07T12:51:03.294Z,98448.47
2023-05-07T12:53:32.170Z,98458.34
2023-05-07T12:56:00.798Z,98445.69
2023-05-07T12:58:37.784Z,98470.00
2023-05-07T13:01:08.949Z,98474.28
2023-05-07T13:03:37.680Z,98461.25
2023-05-07T13:06:07.628Z,98489.75
2023-05-07T13:08:37.352Z,98500.34
2023-05-07T13:11:05.658Z,98501.88
2023-05-07T13:13:37.826Z,98502.34
2023-05-07T13:16:05.744Z,98507.75
2023-05-07T13:18:33.556Z,98506.47
2023-05-07T13:21:01.588Z,98522.50
2023-05-07T13:23:29.305Z,98527.38
2023-05-07T13:25:56.967Z,98542.41
2023-05-07T13:28:27.228Z,98542.50
2023-05-07T13:30:55.692Z,98534.94
2023-05-07T13:33:22.791Z,98534.19
2023-05-07T13:35:49.595Z,98547.56
2023-05-07T13:38:17.171Z,98559.97
2023-05-07T13:40:44.091Z,98564.56
2023-05-07T13:43:11.670Z,98551.31
2023-05-07T13:45:38.860Z,98528.63
2023-05-07T13:48:05.652Z,98563.06
2023-05-07T13:50:32.317Z,98574.13
2023-05-07T13:52:58.906Z,98568.75
2023-05-07T13:55:26.091Z,98558.66
2023-05-07T13:58:00.993Z,98556.66
2023-05-07T14:00:29.105Z,98588.53
2023-05-07T14:02:57.121Z,98595.22
2023-05-07T14:05:27.844Z,98569.03
2023-05-07T14:07:55.930Z,98542.59
2023-05-07T14:10:22.475Z,98595.66
2023-05-07T14:12:49.144Z,98603.09
2023-05-07T14:15:17.168Z,98593.31
2023-05-07T14:17:44.494Z,98615.78
2023-05-07T14:20:12.074Z,98591.09
2023-05-07T14:22:39.450Z,98546.53
2023-05-07T14:25:07.445Z,98576.13
2023-05-07T14:27:34.573Z,98594.56
2023-05-07T14:30:01.499Z,98611.97
2023-05-07T14:32:28.343Z,98510.91
2023-05-07T14:34:55.064Z,98596.66
2023-05-07T14:37:21.878Z,98596.84
2023-05-07T14:39:50.190Z,98583.34
2023-05-07T14:42:17.931Z,98579.34
2023-05-07T14:44:46.383Z,98596.31
2023-05-07T14:47:13.856Z,98594.72
2023-05-07T14:49:41.865Z,98604.88
2023-05-07T14:52:11.311Z,98603.31
2023-05-07T14:54:41.120Z,98604.38
2023-05-07T14:57:12.660Z,98615.19
2023-05-07T14:59:39.374Z,98631.91
2023-05-07T15:02:09.023Z,98582.09
2023-05-07T15:04:36.222Z,98612.16
2023-05-07T15:07:02.975Z,98622.22
2023-05-07T15:09:30.884Z,98616.06
2023-05-07T15:11:57.566Z,98627.34
2023-05-07T15:14:24.134Z,98633.00
2023-05-07T15:16:51.048Z,98606.81
2023-05-07T15:19:18.027Z,98627.63
2023-05-07T15:21:44.960Z,98629.31
2023-05-07T15:24:11.709Z,98636.66
2023-05-07T15:26:38.295Z,98634.25
2023-05-07T15:29:09.217Z,98625.44
2023-05-07T15:31:36.024Z,98633.56
2023-05-07T15:34:02.742Z,98652.50
2023-05-07T15:36:29.327Z,98662.50
2023-05-07T15:38:56.099Z,98653.91
2023-05-07T15:41:22.680Z,98650.66
2023-05-07T15:43:52.102Z,98647.56
2023-05-07T15:46:20.490Z,98616.91
2023-05-07T15:48:47.727Z,98649.50
2023-05-07T15:51:14.612Z,98669.97
2023-05-07T15:53:41.326Z,98668.28
2023-05-07T15:56:08.549Z,98673.63
2023-05-07T15:58:36.407Z,98617.13
2023-05-07T16:01:04.064Z,98671.56
2023-05-07T16:03:31.814Z,98640.38
2023-05-07T16:06:00.853Z,98672.94
2023-05-07T16:08:28.031Z,98672.59
2023-05-07T16:10:55.472Z,98667.44
2023-05-07T16:13:24.864Z,98677.28
2023-05-07T16:15:58.472Z,98648.88
2023-05-07T16:18:25.386Z,98679.59
2023-05-07T16:20:52.163Z,98630.91
2023-05-07T16:23:19.303Z,98681.75
2023-05-07T16:25:46.021Z,98671.72
2023-05-07T16:28:12.690Z,98675.91
2023-05-07T16:30:39.591Z,98641.44
2023-05-07T16:33:06.271Z,98666.97
2023-05-07T16:35:32.930Z,98662.59
2023-05-07T16:37:59.654Z,98674.09
2023-05-07T16:40:26.529Z,98679.28
2023-05-07T16:42:55.327Z,98686.25
2023-05-07T16:45:23.396Z,98681.44
2023-05-07T16:47:50.139Z,98698.56
2023-05-07T16:50:17.134Z,98706.22
2023-05-07T16:52:43.780Z,98678.97
2023-05-07T16:55:10.906Z,98704.06
2023-05-07T16:57:38.143Z,98705.56
2023-05-07T17:00:07.376Z,98701.91
2023-05-07T17:02:35.857Z,98672.84
2023-05-07T17:05:02.657Z,98716.50
2023-05-07T17:07:29.451Z,98686.28
2023-05-07T17:09:56.065Z,98713.34
2023-05-07T17:12:22.921Z,98741.75
2023-05-07T17:14:49.992Z,98717.09
2023-05-07T17:17:16.766Z,98734.34
2023-05-07T17:19:44.250Z,98709.97
2023-05-07T17:22:10.812Z,98723.72
2023-05-07T17:24:37.430Z,98709.47
2023-05-07T17:27:04.177Z,98727.00
2023-05-07T17:29:30.984Z,98727.31
2023-05-07T17:31:57.650Z,98734.28
2023-05-07T17:34:24.300Z,98725.03
2023-05-07T17:36:50.956Z,98735.47
2023-05-07T17:39:17.497Z,98697.34
2023-05-07T17:41:44.170Z,98736.25
2023-05-07T17:44:10.748Z,98743.25
2023-05-07T17:46:37.377Z,98748.78
2023-05-07T17:49:04.121Z,98748.78
2023-05-07T17:51:39.074Z,98722.47
2023-05-07T17:54:12.786Z,98753.16
2023-05-07T17:56:40.747Z,98748.06
2023-05-07T17:59:07.306Z,98755.63
2023-05-07T18:01:34.616Z,98751.66
2023-05-07T18:04:02.437Z,98736.00
2023-05-07T18:06:29.485Z,98751.59
2023-05-07T18:08:56.797Z,98753.91
2023-05-07T18:11:24.598Z,98736.53
2023-05-07T18:13:51.300Z,98759.31
2023-05-07T18:16:19.910Z,98755.16
2023-05-07T18:18:46.984Z,98747.34
2023-05-07T18:21:18.914Z,98760.75
2023-05-07T18:23:46.621Z,98767.81
2023-05-07T18:26:14.177Z,98766.00
2023-05-07T18:28:40.899Z,98764.28
2023-05-07T18:31:07.536Z,98764.56
2023-05-07T18:33:34.263Z,98763.59
2023-05-07T18:36:00.883Z,98765.88
2023-05-07T18:38:27.540Z,98743.53
2023-05-07T18:40:54.456Z,98768.84
2023-05-07T18:43:24.446Z,98760.50
2023-05-07T18:45:51.172Z,98751.09
2023-05-07T18:48:17.873Z,98757.22
2023-05-07T18:50:44.750Z,98773.97
2023-05-07T18:53:11.401Z,98760.34
2023-05-07T18:55:38.059Z,98773.28
2023-05-07T18:58:04.699Z,98776.25
2023-05-07T19:00:31.377Z,98767.75
2023-05-07T19:02:58.178Z,98778.13
2023-05-07T19:05:24.967Z,98781.69
2023-05-07T19:07:51.572Z,98760.78
2023-05-07T19:10:18.445Z,98758.59
2023-05-07T19:12:45.112Z,98778.34
2023-05-07T19:15:11.850Z,98778.66
2023-05-07T19:17:38.613Z,98780.63
2023-05-07T19:22:37.230Z,98787.50
2023-05-07T19:25:04.377Z,98776.50
2023-05-07T19:27:31.023Z,98785.75
2023-05-07T19:29:58.806Z,98780.44
2023-05-07T19:32:26.084Z,98768.25
2023-05-07T19:34:53.193Z,98779.09
2023-05-07T19:37:22.887Z,98791.63
2023-05-07T19:39:49.702Z,98780.66
2023-05-07T19:42:16.744Z,98788.88
2023-05-07T19:44:43.459Z,98765.88
2023-05-07T19:47:10.151Z,98728.16
2023-05-07T19:49:36.765Z,98796.91
2023-05-07T19:52:04.068Z,98807.94
2023-05-07T19:54:30.853Z,98797.34
2023-05-07T19:56:57.541Z,98784.69
2023-05-07T19:59:24.214Z,98787.63
2023-05-07T20:01:51.027Z,98801.25
2023-05-07T20:04:17.589Z,98790.94
2023-05-07T20:06:44.250Z,98796.53
2023-05-07T20:09:12.876Z,98799.50
2023-05-07T20:11:40.594Z,98771.81
2023-05-07T20:14:07.466Z,98797.72
2023-05-07T20:16:34.716Z,98804.69
2023-05-07T20:19:01.474Z,98811.09
2023-05-07T20:21:28.256Z,98779.69
2023-05-07T20:23:54.868Z,98785.00
2023-05-07T20:26:21.435Z,98803.19
2023-05-07T20:28:48.129Z,98805.44
2023-05-07T20:31:16.147Z,98791.41
2023-05-07T20:33:42.737Z,98800.41
2023-05-07T20:36:09.995Z,98803.66
2023-05-07T20:38:36.504Z,98809.53
2023-05-07T20:41:12.590Z,98799.22
2023-05-07T20:43:39.251Z,98803.66
2023-05-07T20:46:07.775Z,98804.22
2023-05-07T20:48:34.992Z,98807.03
2023-05-07T20:51:02.819Z,98812.59
2023-05-07T20:53:32.679Z,98807.56
2023-05-07T20:55:59.944Z,98811.47
2023-05-07T20:58:28.450Z,98763.97
2023-05-07T21:00:56.055Z,98766.56
2023-05-07T21:03:22.987Z,98799.78
2023-05-07T21:05:53.391Z,98791.44
2023-05-07T21:08:20.594Z,98753.38
2023-05-07T21:10:47.993Z,98780.06
2023-05-07T21:13:15.166Z,98796.31
2023-05-07T21:15:42.942Z,98738.13
2023-05-07T21:18:13.117Z,98780.06
2023-05-07T21:20:39.846Z,98773.41
2023-05-07T21:23:06.707Z,98768.69
2023-05-07T21:25:33.594Z,98768.41
2023-05-07T21:28:00.208Z,98758.13
2023-05-07T21:30:26.843Z,98740.44
2023-05-07T21:32:55.662Z,98744.50
2023-05-07T21:35:22.460Z,98746.19
2023-05-07T21:37:49.023Z,98711.16
2023-05-07T21:40:15.774Z,98750.34
2023-05-07T21:42:42.458Z,98745.06
2023-05-07T21:45:09.625Z,98750.34
2023-05-07T21:47:36.305Z,98749.94
2023-05-07T21:50:03.073Z,98738.09
2023-05-07T21:52:29.669Z,98747.56
2023-05-07T21:54:56.403Z,98729.06
2023-05-07T21:57:22.948Z,98743.53
2023-05-07T21:59:49.510Z,98730.06
2023-05-07T22:02:16.148Z,98736.59
2023-05-07T22:04:43.421Z,98697.56
2023-05-07T22:07:09.988Z,98726.28
2023-05-07T22:09:36.761Z,98700.88
2023-05-07T22:12:03.998Z,98727.84
2023-05-07T22:14:30.609Z,98718.97
2023-05-07T22:16:57.184Z,98719.50
2023-05-07T22:19:23.764Z,98721.47
2023-05-07T22:21:50.396Z,98680.88
2023-05-07T22:24:16.878Z,98706.16
2023-05-07T22:26:43.429Z,98693.66
2023-05-07T22:29:09.933Z,98702.53
2023-05-07T22:31:36.746Z,98696.69
2023-05-07T22:34:03.325Z,98696.44
2023-05-07T22:36:29.891Z,98688.38
2023-05-07T22:38:56.670Z,98645.75
2023-05-07T22:41:23.968Z,98673.38
2023-05-07T22:43:50.719Z,98668.94
2023-05-07T22:46:17.511Z,98656.16
2023-05-07T22:48:44.225Z,98649.22
2023-05-07T22:51:14.648Z,98598.53
2023-05-07T22:53:41.272Z,98591.31
2023-05-07T22:56:08.545Z,98574.81
2023-05-07T22:58:35.257Z,98622.69
2023-05-07T23:01:02.517Z,98633.09
2023-05-07T23:03:29.720Z,98587.56
2023-05-07T23:05:56.315Z,98612.53
2023-05-07T23:08:23.381Z,98610.59
2023-05-07T23:10:49.949Z,98598.41
2023-05-07T23:13:17.492Z,98604.22
2023-05-07T23:15:44.505Z,98607.81
2023-05-07T23:18:11.719Z,98598.09
2023-05-07T23:20:41.122Z,98588.66
2023-05-07T23:23:07.709Z,98601.84
2023-05-07T23:25:34.273Z,98587.56
2023-05-07T23:28:00.826Z,98578.66
2023-05-07T23:30:27.714Z,98573.97
2023-05-07T23:32:54.299Z,98562.00
2023-05-07T23:35:21.323Z,98555.38
2023-05-07T23:37:47.871Z,98553.13
2023-05-07T23:40:14.780Z,98551.72
2023-05-07T23:42:41.426Z,98543.97
2023-05-07T23:45:11.097Z,98543.69
2023-05-07T23:47:37.749Z,98543.69
2023-05-07T23:50:04.587Z,98542.31
2023-05-07T23:52:31.642Z,98528.16
2023-05-07T23:54:58.231Z,98519.13
2023-05-07T23:57:24.875Z,98513.47
2023-05-07T23:59:52.070Z,98500.69
